createdAt,value
2018-12-18T00:02:19.609Z,20.23
2018-12-18T00:04:47.722Z,22.13
2018-12-18T00:07:15.808Z,21.17
2018-12-18T00:09:43.932Z,22.63
2018-12-18T00:12:12.036Z,22.83
2018-12-18T00:14:40.165Z,23.47
2018-12-18T00:17:08.382Z,20.87
2018-12-18T00:19:36.493Z,23.20
2018-12-18T00:22:04.824Z,20.83
2018-12-18T00:24:32.956Z,23.50
2018-12-18T00:27:01.091Z,22.87
2018-12-18T00:29:29.201Z,20.80
2018-12-18T00:31:57.334Z,20.27
2018-12-18T00:34:29.220Z,22.57
2018-12-18T00:36:57.337Z,19.13
2018-12-18T00:39:25.505Z,22.40
2018-12-18T00:41:57.045Z,21.07
2018-12-18T00:44:25.501Z,18.60
2018-12-18T00:46:53.934Z,20.17
2018-12-18T00:49:22.049Z,19.10
2018-12-18T00:51:50.145Z,28.53
2018-12-18T00:54:18.313Z,21.53
2018-12-18T00:56:46.426Z,21.33
2018-12-18T00:59:14.588Z,21.93
2018-12-18T01:01:47.005Z,24.17
2018-12-18T01:04:15.139Z,22.83
2018-12-18T01:06:43.540Z,24.53
2018-12-18T01:09:11.681Z,19.10
2018-12-18T01:11:39.840Z,20.77
2018-12-18T01:14:07.949Z,22.40
2018-12-18T01:16:36.053Z,22.23
2018-12-18T01:19:04.212Z,21.77
2018-12-18T01:21:32.329Z,25.43
2018-12-18T01:24:00.635Z,20.83
2018-12-18T01:26:28.721Z,21.93
2018-12-18T01:28:56.849Z,21.77
2018-12-18T01:31:24.945Z,24.00
2018-12-18T01:33:59.100Z,26.13
2018-12-18T01:36:23.173Z,22.63
2018-12-18T01:38:51.301Z,21.40
2018-12-18T01:41:19.392Z,21.87
2018-12-18T01:43:47.496Z,21.23
2018-12-18T01:46:15.649Z,21.23
2018-12-18T01:48:43.755Z,19.80
2018-12-18T01:51:12.156Z,20.50
2018-12-18T01:53:40.299Z,18.43
2018-12-18T01:56:08.405Z,18.67
2018-12-18T01:58:36.524Z,21.37
2018-12-18T02:01:04.632Z,25.00
2018-12-18T02:03:32.736Z,20.63
2018-12-18T02:06:00.890Z,21.47
2018-12-18T02:08:28.978Z,17.30
2018-12-18T02:10:57.616Z,22.70
2018-12-18T02:13:26.064Z,20.13
2018-12-18T02:15:54.172Z,16.67
2018-12-18T02:18:22.268Z,18.27
2018-12-18T02:20:50.747Z,20.33
2018-12-18T02:23:18.838Z,21.87
2018-12-18T02:25:46.835Z,18.60
2018-12-18T02:28:14.947Z,19.33
2018-12-18T02:30:42.988Z,18.67
2018-12-18T02:33:11.028Z,18.23
2018-12-18T02:35:39.068Z,18.83
2018-12-18T02:38:07.125Z,16.77
2018-12-18T02:40:35.202Z,18.70
2018-12-18T02:43:03.529Z,18.10
2018-12-18T02:45:31.651Z,18.63
2018-12-18T02:48:00.003Z,19.30
2018-12-18T02:50:28.042Z,19.03
2018-12-18T02:52:56.211Z,18.53
2018-12-18T02:55:24.310Z,19.33
2018-12-18T02:57:52.335Z,21.97
2018-12-18T03:00:20.366Z,18.33
2018-12-18T03:02:48.422Z,19.57
2018-12-18T03:05:16.441Z,17.93
2018-12-18T03:07:44.509Z,17.50
2018-12-18T03:10:12.923Z,16.73
2018-12-18T03:12:41.048Z,18.33
2018-12-18T03:15:09.074Z,19.83
2018-12-18T03:17:37.369Z,17.23
2018-12-18T03:20:05.841Z,23.07
2018-12-18T03:22:33.877Z,18.33
2018-12-18T03:25:01.928Z,15.53
2018-12-18T03:27:29.951Z,18.77
2018-12-18T03:29:57.988Z,17.83
2018-12-18T03:32:30.545Z,18.93
2018-12-18T03:34:58.668Z,16.60
2018-12-18T03:37:30.282Z,18.17
2018-12-18T03:39:58.401Z,15.70
2018-12-18T03:42:26.519Z,18.77
2018-12-18T03:44:54.955Z,20.73
2018-12-18T03:47:23.004Z,17.23
2018-12-18T03:49:51.024Z,18.03
2018-12-18T03:52:19.376Z,18.53
2018-12-18T03:54:47.406Z,19.23
2018-12-18T03:57:15.435Z,20.53
2018-12-18T03:59:43.485Z,21.83
2018-12-18T04:02:11.626Z,18.37
2018-12-18T04:04:39.653Z,18.30
2018-12-18T04:07:07.720Z,18.97
2018-12-18T04:09:35.748Z,18.90
2018-12-18T04:12:08.654Z,16.70
2018-12-18T04:14:36.784Z,18.47
2018-12-18T04:17:04.816Z,22.17
2018-12-18T04:19:32.847Z,15.40
2018-12-18T04:22:00.889Z,18.50
2018-12-18T04:24:29.246Z,18.00
2018-12-18T04:26:57.291Z,19.63
2018-12-18T04:29:25.351Z,17.70
2018-12-18T04:31:53.533Z,17.97
2018-12-18T04:34:21.578Z,17.23
2018-12-18T04:36:49.623Z,17.47
2018-12-18T04:39:17.678Z,19.57
2018-12-18T04:41:45.725Z,17.73
2018-12-18T04:44:13.785Z,19.20
2018-12-18T04:46:41.831Z,18.70
2018-12-18T04:49:10.224Z,17.97
2018-12-18T04:51:38.255Z,20.37
2018-12-18T04:54:06.292Z,23.37
2018-12-18T04:56:34.354Z,21.23
2018-12-18T04:59:02.614Z,17.23
2018-12-18T05:01:30.695Z,20.43
2018-12-18T05:03:58.743Z,21.00
2018-12-18T05:06:26.795Z,21.33
2018-12-18T05:08:58.072Z,18.37
2018-12-18T05:11:26.093Z,21.97
2018-12-18T05:13:54.139Z,19.33
2018-12-18T05:16:22.173Z,23.07
2018-12-18T05:18:50.212Z,21.13
2018-12-18T05:21:18.288Z,19.00
2018-12-18T05:23:46.323Z,20.30
2018-12-18T05:26:14.367Z,23.00
2018-12-18T05:28:42.463Z,21.90
2018-12-18T05:31:10.847Z,25.00
2018-12-18T05:33:38.885Z,23.63
2018-12-18T05:36:07.109Z,20.20
2018-12-18T05:38:35.119Z,21.63
2018-12-18T05:41:03.281Z,22.20
2018-12-18T05:43:31.325Z,19.60
2018-12-18T05:45:59.379Z,26.77
2018-12-18T05:48:27.416Z,20.37
2018-12-18T05:50:55.451Z,20.10
2018-12-18T05:53:23.576Z,22.57
2018-12-18T05:55:51.605Z,22.73
2018-12-18T05:58:19.666Z,19.83
2018-12-18T06:00:48.068Z,21.30
2018-12-18T06:03:16.109Z,23.23
2018-12-18T06:05:44.134Z,20.90
2018-12-18T06:08:12.192Z,21.83
2018-12-18T06:10:40.263Z,20.57
2018-12-18T06:13:08.279Z,19.07
2018-12-18T06:15:36.304Z,20.10
2018-12-18T06:18:04.363Z,17.67
2018-12-18T06:20:32.800Z,19.80
2018-12-18T06:23:00.823Z,21.03
2018-12-18T06:25:28.988Z,20.70
2018-12-18T06:27:57.213Z,31.77
2018-12-18T06:30:25.235Z,24.20
2018-12-18T06:32:53.272Z,22.00
2018-12-18T06:35:21.351Z,24.50
2018-12-18T06:37:49.390Z,27.47
2018-12-18T06:40:17.446Z,22.87
2018-12-18T06:42:45.496Z,22.03
2018-12-18T06:45:13.531Z,22.50
2018-12-18T06:47:41.579Z,21.53
2018-12-18T06:50:09.634Z,21.37
2018-12-18T06:52:37.748Z,21.83
2018-12-18T06:55:05.908Z,24.43
2018-12-18T06:57:33.957Z,24.03
2018-12-18T07:00:02.117Z,28.07
2018-12-18T07:02:30.457Z,21.53
2018-12-18T07:04:58.514Z,23.30
2018-12-18T07:07:26.548Z,19.60
2018-12-18T07:09:54.592Z,20.60
2018-12-18T07:12:22.674Z,21.07
2018-12-18T07:14:50.692Z,21.50
2018-12-18T07:17:18.733Z,22.70
2018-12-18T07:19:46.784Z,21.93
2018-12-18T07:22:14.836Z,23.07
2018-12-18T07:24:42.886Z,21.40
2018-12-18T07:27:11.276Z,23.47
2018-12-18T07:29:39.313Z,23.07
2018-12-18T07:32:07.403Z,21.40
2018-12-18T07:34:35.500Z,26.10
2018-12-18T07:37:03.571Z,23.07
2018-12-18T07:39:31.620Z,24.57
2018-12-18T07:41:59.840Z,25.73
2018-12-18T07:44:27.867Z,24.33
2018-12-18T07:46:55.919Z,25.30
2018-12-18T07:49:23.986Z,28.97
2018-12-18T07:51:59.015Z,30.53
2018-12-18T07:54:27.129Z,24.53
2018-12-18T07:56:55.127Z,23.70
2018-12-18T07:59:23.196Z,25.00
2018-12-18T08:01:51.255Z,24.27
2018-12-18T08:04:19.320Z,26.60
2018-12-18T08:06:47.497Z,30.83
2018-12-18T08:09:15.524Z,19.33
2018-12-18T08:11:44.054Z,23.80
2018-12-18T08:14:12.107Z,27.80
2018-12-18T08:16:40.168Z,30.27
2018-12-18T08:19:08.644Z,28.87
2018-12-18T08:21:36.672Z,26.70
2018-12-18T08:24:04.711Z,24.23
2018-12-18T08:26:33.172Z,23.77
2018-12-18T08:29:01.206Z,26.93
2018-12-18T08:31:29.287Z,26.67
2018-12-18T08:33:57.376Z,22.53
2018-12-18T08:36:25.601Z,24.63
2018-12-18T08:38:53.648Z,26.37
2018-12-18T08:41:21.674Z,23.97
2018-12-18T08:43:50.126Z,24.70
2018-12-18T08:46:18.143Z,27.87
2018-12-18T08:48:46.179Z,25.67
2018-12-18T08:51:14.597Z,30.83
2018-12-18T08:53:42.715Z,25.00
2018-12-18T08:56:10.728Z,26.83
2018-12-18T08:58:38.795Z,24.20
2018-12-18T09:01:06.828Z,26.97
2018-12-18T09:03:34.876Z,22.77
2018-12-18T09:06:02.996Z,29.37
2018-12-18T09:08:31.319Z,23.53
2018-12-18T09:10:59.367Z,26.67
2018-12-18T09:13:27.486Z,26.23
2018-12-18T09:15:55.924Z,21.80
2018-12-18T09:18:24.027Z,26.97
2018-12-18T09:20:52.159Z,23.43
2018-12-18T09:23:20.255Z,23.87
2018-12-18T09:25:48.522Z,25.37
2018-12-18T09:28:16.549Z,24.30
2018-12-18T09:30:44.608Z,27.37
2018-12-18T09:33:12.721Z,26.10
2018-12-18T09:35:41.068Z,22.57
2018-12-18T09:38:14.784Z,28.80
2018-12-18T09:40:48.367Z,23.83
2018-12-18T09:43:21.882Z,21.97
2018-12-18T09:45:49.919Z,24.47
2018-12-18T09:48:17.975Z,26.23
2018-12-18T09:50:46.063Z,23.77
2018-12-18T09:53:14.097Z,25.70
2018-12-18T09:55:42.258Z,23.60
2018-12-18T09:58:11.233Z,27.10
2018-12-18T10:00:39.483Z,27.73
2018-12-18T10:03:07.800Z,28.47
2018-12-18T10:05:35.848Z,22.90
2018-12-18T10:08:04.297Z,26.13
2018-12-18T10:10:32.325Z,24.30
2018-12-18T10:13:00.364Z,23.30
2018-12-18T10:15:28.525Z,22.17
2018-12-18T10:17:56.564Z,24.63
2018-12-18T10:20:24.618Z,23.30
2018-12-18T10:22:52.639Z,20.57
2018-12-18T10:25:20.687Z,22.37
2018-12-18T10:27:48.733Z,21.63
2018-12-18T10:30:16.777Z,22.17
2018-12-18T10:32:44.913Z,21.73
2018-12-18T10:35:12.938Z,23.50
2018-12-18T10:37:40.994Z,22.30
2018-12-18T10:40:09.792Z,19.20
2018-12-18T10:42:37.883Z,26.30
2018-12-18T10:45:13.581Z,28.07
2018-12-18T10:47:37.832Z,23.10
2018-12-18T10:50:05.975Z,20.27
2018-12-18T10:52:34.003Z,24.00
2018-12-18T10:55:02.072Z,23.83
2018-12-18T10:57:30.121Z,24.43
2018-12-18T10:59:58.336Z,20.23
2018-12-18T11:02:26.410Z,22.70
2018-12-18T11:04:54.435Z,40.87
2018-12-18T11:07:22.480Z,24.27
2018-12-18T11:09:50.536Z,26.47
2018-12-18T11:12:23.203Z,32.93
2018-12-18T11:14:51.242Z,25.90
2018-12-18T11:17:19.390Z,34.03
2018-12-18T11:19:47.735Z,25.33
2018-12-18T11:22:16.086Z,23.23
2018-12-18T11:24:44.328Z,30.70
2018-12-18T11:27:12.806Z,24.40
2018-12-18T11:29:41.056Z,23.13
2018-12-18T11:32:09.537Z,25.57
2018-12-18T11:34:37.980Z,25.37
2018-12-18T11:37:06.560Z,26.47
2018-12-18T11:39:34.826Z,35.70
2018-12-18T11:42:03.213Z,25.20
2018-12-18T11:44:31.480Z,20.47
2018-12-18T11:46:59.925Z,19.57
2018-12-18T11:49:28.186Z,29.67
2018-12-18T11:51:56.432Z,29.27
2018-12-18T11:54:24.725Z,20.47
2018-12-18T11:56:52.981Z,20.50
2018-12-18T11:59:21.255Z,25.83
2018-12-18T12:01:49.526Z,29.57
2018-12-18T12:04:17.811Z,29.07
2018-12-18T12:06:46.052Z,29.07
2018-12-18T12:09:14.520Z,28.03
2018-12-18T12:11:42.784Z,26.73
2018-12-18T12:14:11.182Z,28.60
2018-12-18T12:16:39.521Z,26.13
2018-12-18T12:19:07.968Z,31.07
2018-12-18T12:21:36.221Z,31.23
2018-12-18T12:24:04.546Z,30.10
2018-12-18T12:26:32.919Z,36.63
2018-12-18T12:29:01.719Z,36.53
2018-12-18T12:31:30.144Z,30.93
2018-12-18T12:33:58.748Z,28.30
2018-12-18T12:36:29.846Z,26.77
2018-12-18T12:38:57.228Z,27.33
2018-12-18T12:41:25.831Z,27.00
2018-12-18T12:43:54.183Z,23.53
2018-12-18T12:46:22.427Z,29.83
2018-12-18T12:48:56.098Z,28.90
2018-12-18T12:51:24.596Z,33.70
2018-12-18T12:53:52.958Z,25.90
2018-12-18T12:56:21.221Z,30.83
2018-12-18T12:58:49.529Z,27.87
2018-12-18T13:01:17.781Z,27.87
2018-12-18T13:03:46.028Z,23.90
2018-12-18T13:06:14.288Z,25.20
2018-12-18T13:08:42.537Z,36.00
2018-12-18T13:11:10.901Z,32.10
2018-12-18T13:13:39.185Z,34.70
2018-12-18T13:16:07.588Z,27.67
2018-12-18T13:18:35.847Z,23.63
2018-12-18T13:21:04.216Z,25.83
2018-12-18T13:23:32.516Z,24.27
2018-12-18T13:26:01.037Z,29.27
2018-12-18T13:28:29.369Z,27.80
2018-12-18T13:30:57.631Z,24.03
2018-12-18T13:33:25.944Z,26.47
2018-12-18T13:35:54.197Z,29.73
2018-12-18T13:38:22.668Z,22.03
2018-12-18T13:40:57.681Z,28.37
2018-12-18T13:43:25.992Z,27.57
2018-12-18T13:45:54.476Z,32.33
2018-12-18T13:48:23.092Z,34.77
2018-12-18T13:50:51.338Z,33.33
2018-12-18T13:53:19.617Z,34.10
2018-12-18T13:58:22.419Z,28.47
2018-12-18T14:00:51.126Z,33.33
2018-12-18T14:03:19.470Z,25.90
2018-12-18T14:05:47.724Z,23.73
2018-12-18T14:08:15.968Z,28.50
2018-12-18T14:10:44.296Z,27.50
2018-12-18T14:13:12.558Z,27.17
2018-12-18T14:15:40.880Z,27.67
2018-12-18T14:18:09.171Z,21.53
2018-12-18T14:20:37.547Z,28.03
2018-12-18T14:23:05.784Z,23.20
2018-12-18T14:25:34.059Z,22.57
2018-12-18T14:28:02.311Z,25.60
2018-12-18T14:30:30.595Z,35.30
2018-12-18T14:32:58.852Z,25.53
2018-12-18T14:35:27.146Z,25.00
2018-12-18T14:37:55.415Z,48.17
2018-12-18T14:40:23.658Z,28.63
2018-12-18T14:42:52.028Z,22.47
2018-12-18T14:45:20.292Z,24.33
2018-12-18T14:47:48.615Z,28.90
2018-12-18T14:50:17.139Z,24.73
2018-12-18T14:52:45.440Z,30.87
2018-12-18T14:55:13.809Z,31.53
2018-12-18T14:57:42.295Z,24.70
2018-12-18T15:00:10.640Z,30.20
2018-12-18T15:02:38.993Z,33.07
2018-12-18T15:05:07.335Z,27.73
2018-12-18T15:07:35.673Z,27.13
2018-12-18T15:10:04.206Z,27.30
2018-12-18T15:12:32.439Z,27.83
2018-12-18T15:15:00.732Z,33.97
2018-12-18T15:17:35.576Z,33.17
2018-12-18T15:20:04.249Z,35.07
2018-12-18T15:22:32.512Z,32.27
2018-12-18T15:25:00.744Z,30.13
2018-12-18T15:27:28.996Z,26.40
2018-12-18T15:29:57.386Z,26.23
2018-12-18T15:32:26.112Z,25.33
2018-12-18T15:34:54.454Z,23.90
2018-12-18T15:37:22.791Z,26.97
2018-12-18T15:39:51.032Z,32.53
2018-12-18T15:42:19.323Z,26.90
2018-12-18T15:44:47.828Z,26.30
2018-12-18T15:47:16.076Z,23.97
2018-12-18T15:49:44.350Z,24.40
2018-12-18T15:52:12.593Z,25.13
2018-12-18T15:54:40.833Z,25.43
2018-12-18T15:57:09.172Z,27.87
2018-12-18T15:59:37.495Z,23.47
2018-12-18T16:02:05.848Z,34.10
2018-12-18T16:04:34.182Z,33.00
2018-12-18T16:07:02.586Z,30.73
2018-12-18T16:09:30.809Z,32.40
2018-12-18T16:11:59.306Z,31.73
2018-12-18T16:14:27.569Z,38.90
2018-12-18T16:16:55.911Z,33.07
2018-12-18T16:19:24.320Z,30.13
2018-12-18T16:21:52.679Z,29.53
2018-12-18T16:24:21.150Z,26.10
2018-12-18T16:26:49.457Z,22.93
2018-12-18T16:29:18.037Z,24.90
2018-12-18T16:31:46.269Z,24.07
2018-12-18T16:34:14.535Z,26.87
2018-12-18T16:36:42.801Z,26.97
2018-12-18T16:39:11.052Z,23.20
2018-12-18T16:41:39.462Z,26.27
2018-12-18T16:44:07.698Z,27.27
2018-12-18T16:46:35.944Z,27.07
2018-12-18T16:49:04.348Z,30.70
2018-12-18T16:51:32.688Z,28.87
2018-12-18T16:54:01.594Z,20.63
2018-12-18T16:56:29.936Z,27.93
2018-12-18T16:58:58.364Z,23.47
2018-12-18T17:01:26.616Z,25.33
2018-12-18T17:03:54.961Z,26.07
2018-12-18T17:06:23.194Z,24.47
2018-12-18T17:08:51.445Z,26.93
2018-12-18T17:11:19.701Z,26.17
2018-12-18T17:13:48.065Z,25.13
2018-12-18T17:16:16.276Z,26.80
2018-12-18T17:18:44.624Z,24.83
2018-12-18T17:21:16.241Z,27.33
2018-12-18T17:23:44.593Z,27.47
2018-12-18T17:26:13.027Z,22.87
2018-12-18T17:28:41.268Z,24.03
2018-12-18T17:31:09.756Z,26.83
2018-12-18T17:33:37.985Z,26.47
2018-12-18T17:36:06.544Z,21.83
2018-12-18T17:38:34.847Z,23.47
2018-12-18T17:41:03.199Z,22.27
2018-12-18T17:43:31.752Z,20.33
2018-12-18T17:46:00.087Z,22.63
2018-12-18T17:48:28.337Z,20.93
2018-12-18T17:50:56.624Z,19.47
2018-12-18T17:53:24.929Z,22.60
2018-12-18T17:55:53.239Z,19.20
2018-12-18T17:58:21.480Z,24.17
2018-12-18T18:00:49.791Z,20.10
2018-12-18T18:03:18.052Z,24.10
2018-12-18T18:05:46.374Z,28.20
2018-12-18T18:08:14.700Z,20.43
2018-12-18T18:10:42.988Z,24.00
2018-12-18T18:13:11.243Z,22.57
2018-12-18T18:15:39.556Z,21.63
2018-12-18T18:18:07.788Z,19.30
2018-12-18T18:20:36.044Z,23.07
2018-12-18T18:23:04.312Z,26.20
2018-12-18T18:25:32.574Z,19.77
2018-12-18T18:28:00.823Z,26.50
2018-12-18T18:30:29.171Z,29.57
2018-12-18T18:32:57.631Z,20.73
2018-12-18T18:35:25.878Z,23.27
2018-12-18T18:37:54.141Z,22.80
2018-12-18T18:40:22.388Z,19.03
2018-12-18T18:42:50.656Z,20.90
2018-12-18T18:45:18.964Z,23.13
2018-12-18T18:47:47.223Z,20.47
2018-12-18T18:50:15.488Z,18.30
2018-12-18T18:52:47.641Z,24.17
2018-12-18T18:55:16.216Z,20.53
2018-12-18T18:57:44.592Z,21.23
2018-12-18T19:00:13.333Z,18.57
2018-12-18T19:02:41.678Z,18.77
2018-12-18T19:05:09.933Z,18.23
2018-12-18T19:07:41.689Z,16.50
2018-12-18T19:10:09.939Z,20.57
2018-12-18T19:12:38.205Z,23.40
2018-12-18T19:15:06.559Z,20.60
2018-12-18T19:17:34.939Z,17.87
2018-12-18T19:20:03.625Z,15.93
2018-12-18T19:22:31.884Z,20.57
2018-12-18T19:25:00.284Z,19.67
2018-12-18T19:27:28.753Z,21.90
2018-12-18T19:29:57.019Z,18.77
2018-12-18T19:32:25.308Z,22.50
2018-12-18T19:34:53.588Z,21.07
2018-12-18T19:37:21.897Z,19.57
2018-12-18T19:39:50.361Z,18.43
2018-12-18T19:42:19.168Z,19.43
2018-12-18T19:44:47.577Z,18.77
2018-12-18T19:47:15.953Z,19.50
2018-12-18T19:49:44.287Z,17.73
2018-12-18T19:52:12.532Z,18.70
2018-12-18T19:54:41.088Z,18.80
2018-12-18T19:57:09.347Z,24.80
2018-12-18T19:59:37.596Z,18.13
2018-12-18T20:02:06.104Z,20.30
2018-12-18T20:04:34.407Z,18.67
2018-12-18T20:07:02.641Z,14.93
2018-12-18T20:09:30.912Z,25.83
2018-12-18T20:11:59.237Z,21.93
2018-12-18T20:14:27.514Z,21.90
2018-12-18T20:16:56.060Z,17.60
2018-12-18T20:19:24.321Z,19.97
2018-12-18T20:21:52.563Z,20.23
2018-12-18T20:24:20.830Z,16.80
2018-12-18T20:26:49.950Z,24.20
2018-12-18T20:29:18.251Z,18.23
2018-12-18T20:31:46.530Z,20.10
2018-12-18T20:34:14.808Z,18.50
2018-12-18T20:36:43.060Z,17.43
2018-12-18T20:39:14.533Z,22.67
2018-12-18T20:41:42.895Z,20.07
2018-12-18T20:44:11.191Z,19.37
2018-12-18T20:46:39.446Z,17.93
2018-12-18T20:49:07.757Z,19.17
2018-12-18T20:51:35.980Z,19.17
2018-12-18T20:54:04.687Z,27.33
2018-12-18T20:56:33.153Z,20.73
2018-12-18T20:59:01.388Z,20.70
2018-12-18T21:01:29.944Z,18.33
2018-12-18T21:03:58.205Z,21.13
2018-12-18T21:06:26.474Z,17.80
2018-12-18T21:08:54.743Z,17.63
2018-12-18T21:11:23.005Z,19.40
2018-12-18T21:13:51.285Z,17.93
2018-12-18T21:16:19.573Z,18.87
2018-12-18T21:18:48.208Z,19.10
2018-12-18T21:21:16.451Z,17.77
2018-12-18T21:23:44.827Z,19.37
2018-12-18T21:26:13.091Z,17.57
2018-12-18T21:28:41.352Z,20.27
2018-12-18T21:31:09.636Z,21.23
2018-12-18T21:33:37.911Z,19.40
2018-12-18T21:36:06.392Z,20.60
2018-12-18T21:38:34.666Z,19.37
2018-12-18T21:41:03.041Z,15.73
2018-12-18T21:43:31.304Z,21.23
2018-12-18T21:45:59.580Z,21.77
2018-12-18T21:48:27.957Z,17.33
2018-12-18T21:50:56.193Z,17.00
2018-12-18T21:53:24.524Z,19.57
2018-12-18T21:55:52.820Z,21.53
2018-12-18T21:58:21.495Z,23.60
2018-12-18T22:00:49.740Z,19.70
2018-12-18T22:03:18.003Z,18.30
2018-12-18T22:05:46.268Z,17.57
2018-12-18T22:08:14.521Z,18.93
2018-12-18T22:10:46.069Z,23.67
2018-12-18T22:13:14.332Z,19.10
2018-12-18T22:15:42.617Z,19.30
2018-12-18T22:18:10.920Z,16.97
2018-12-18T22:20:39.220Z,19.00
2018-12-18T22:23:07.484Z,19.53
2018-12-18T22:25:35.756Z,15.93
2018-12-18T22:28:04.125Z,20.73
2018-12-18T22:30:32.384Z,18.77
2018-12-18T22:33:00.960Z,22.00
2018-12-18T22:35:29.240Z,20.17
2018-12-18T22:37:57.502Z,16.60
2018-12-18T22:40:25.834Z,17.63
2018-12-18T22:42:54.140Z,20.10
2018-12-18T22:45:22.416Z,17.90
2018-12-18T22:47:50.694Z,19.70
2018-12-18T22:50:19.427Z,24.00
2018-12-18T22:52:47.981Z,20.67
2018-12-18T22:55:16.217Z,19.90
2018-12-18T22:57:44.477Z,19.17
2018-12-18T23:00:17.553Z,21.00
2018-12-18T23:02:45.841Z,22.70
2018-12-18T23:05:14.267Z,18.67
2018-12-18T23:07:42.536Z,19.60
2018-12-18T23:10:10.816Z,18.53
2018-12-18T23:12:39.066Z,20.23
2018-12-18T23:15:07.519Z,18.40
2018-12-18T23:17:35.764Z,19.93
2018-12-18T23:20:04.500Z,20.97
2018-12-18T23:22:32.756Z,17.40
2018-12-18T23:25:01.042Z,22.23
2018-12-18T23:27:29.460Z,19.27
2018-12-18T23:29:57.763Z,21.10
2018-12-18T23:32:26.058Z,21.60
2018-12-18T23:34:54.392Z,19.23
2018-12-18T23:37:22.706Z,23.30
2018-12-18T23:39:51.091Z,23.70
2018-12-18T23:42:25.934Z,20.43
2018-12-18T23:44:54.256Z,23.87
2018-12-18T23:47:22.503Z,21.97
2018-12-18T23:49:50.775Z,19.60
2018-12-18T23:52:19.037Z,22.50
2018-12-18T23:54:47.546Z,23.73
2018-12-18T23:57:15.856Z,24.30
2018-12-18T23:59:44.199Z,23.93
